createdAt,value
2023-01-08T00:01:13.424Z,94.97
2023-01-08T00:03:40.984Z,94.85
2023-01-08T00:06:12.153Z,95.03
2023-01-08T00:08:38.993Z,94.87
2023-01-08T00:11:05.695Z,94.92
2023-01-08T00:13:32.167Z,94.50
2023-01-08T00:16:03.631Z,94.70
2023-01-08T00:18:30.257Z,94.51
2023-01-08T00:20:56.836Z,94.50
2023-01-08T00:23:23.428Z,94.59
2023-01-08T00:25:50.240Z,94.43
2023-01-08T00:28:16.982Z,94.59
2023-01-08T00:30:43.719Z,94.42
2023-01-08T00:33:10.544Z,94.47
2023-01-08T00:35:40.587Z,94.54
2023-01-08T00:38:07.601Z,94.30
2023-01-08T00:40:35.272Z,94.55
2023-01-08T00:43:02.201Z,94.54
2023-01-08T00:45:28.747Z,94.52
2023-01-08T00:47:55.333Z,94.28
2023-01-08T00:50:21.851Z,94.35
2023-01-08T00:52:48.436Z,94.54
2023-01-08T00:55:14.941Z,94.65
2023-01-08T00:57:41.479Z,94.61
2023-01-08T01:00:11.489Z,94.92
2023-01-08T01:02:38.518Z,94.93
2023-01-08T01:05:06.052Z,95.10
2023-01-08T01:07:34.137Z,94.88
2023-01-08T01:10:00.972Z,94.96
2023-01-08T01:12:28.144Z,95.01
2023-01-08T01:14:54.685Z,95.10
2023-01-08T01:17:21.180Z,95.12
2023-01-08T01:19:47.657Z,95.13
2023-01-08T01:22:14.205Z,95.21
2023-01-08T01:24:40.749Z,95.33
2023-01-08T01:27:07.239Z,95.26
2023-01-08T01:29:33.731Z,95.26
2023-01-08T01:32:00.196Z,95.26
2023-01-08T01:34:26.669Z,95.31
2023-01-08T01:36:53.212Z,95.39
2023-01-08T01:39:19.899Z,95.45
2023-01-08T01:41:47.377Z,95.47
2023-01-08T01:44:41.541Z,95.70
2023-01-08T01:47:30.333Z,95.77
2023-01-08T01:50:02.467Z,95.63
2023-01-08T01:52:32.909Z,95.63
2023-01-08T01:55:01.416Z,95.66
2023-01-08T01:57:30.660Z,95.77
2023-01-08T01:59:58.956Z,96.08
2023-01-08T02:02:25.627Z,96.02
2023-01-08T02:04:52.775Z,96.03
2023-01-08T02:07:30.665Z,95.21
2023-01-08T02:10:23.609Z,94.85
2023-01-08T02:13:10.087Z,94.86
2023-01-08T02:15:36.628Z,93.31
2023-01-08T02:18:09.163Z,91.83
2023-01-08T02:20:39.578Z,89.83
2023-01-08T02:23:26.806Z,90.14
2023-01-08T02:26:05.957Z,89.44
2023-01-08T02:29:05.492Z,89.94
2023-01-08T02:31:33.238Z,89.12
2023-01-08T02:33:59.915Z,89.19
2023-01-08T02:36:26.494Z,88.99
2023-01-08T02:39:23.784Z,89.57
2023-01-08T02:41:50.288Z,89.20
2023-01-08T02:44:22.389Z,89.54
2023-01-08T02:46:51.753Z,89.64
2023-01-08T02:49:23.071Z,89.71
2023-01-08T02:51:53.453Z,89.39
2023-01-08T02:54:34.652Z,90.34
2023-01-08T02:57:10.941Z,90.71
2023-01-08T02:59:39.663Z,91.00
2023-01-08T03:02:07.401Z,91.57
2023-01-08T03:04:39.961Z,92.32
2023-01-08T03:07:06.669Z,92.94
2023-01-08T03:09:33.293Z,93.72
2023-01-08T03:12:06.765Z,94.21
2023-01-08T03:14:41.300Z,94.68
2023-01-08T03:17:31.895Z,94.93
2023-01-08T03:20:20.793Z,94.85
2023-01-08T03:22:50.806Z,94.89
2023-01-08T03:25:20.231Z,95.04
2023-01-08T03:27:54.014Z,95.44
2023-01-08T03:30:22.559Z,95.32
2023-01-08T03:32:50.988Z,95.11
2023-01-08T03:35:21.805Z,95.51
2023-01-08T03:37:56.504Z,95.58
2023-01-08T03:40:29.498Z,95.76
2023-01-08T03:42:57.858Z,95.42
2023-01-08T03:45:27.600Z,95.42
2023-01-08T03:47:55.431Z,95.30
2023-01-08T03:50:27.043Z,95.02
2023-01-08T03:52:53.719Z,95.26
2023-01-08T03:55:20.274Z,95.18
2023-01-08T03:57:46.770Z,95.43
2023-01-08T04:00:13.813Z,95.15
2023-01-08T04:02:42.205Z,95.45
2023-01-08T04:05:09.640Z,95.51
2023-01-08T04:07:36.180Z,95.43
2023-01-08T04:10:03.372Z,95.37
2023-01-08T04:12:29.869Z,95.43
2023-01-08T04:14:56.456Z,95.76
2023-01-08T04:17:22.942Z,95.51
2023-01-08T04:19:49.472Z,95.54
2023-01-08T04:22:15.940Z,95.52
2023-01-08T04:24:42.455Z,95.62
2023-01-08T04:27:08.986Z,95.61
2023-01-08T04:29:35.537Z,95.45
2023-01-08T04:32:02.080Z,95.67
2023-01-08T04:34:28.589Z,95.78
2023-01-08T04:36:56.243Z,95.98
2023-01-08T04:39:22.762Z,95.81
2023-01-08T04:41:49.235Z,95.88
2023-01-08T04:44:15.801Z,95.90
2023-01-08T04:46:42.487Z,96.11
2023-01-08T04:49:10.313Z,96.12
2023-01-08T04:51:36.849Z,95.98
2023-01-08T04:54:04.050Z,96.11
2023-01-08T04:56:31.279Z,95.80
2023-01-08T04:58:58.502Z,95.73
2023-01-08T05:01:27.528Z,95.90
2023-01-08T05:03:59.426Z,95.83
2023-01-08T05:06:26.421Z,95.74
2023-01-08T05:08:52.989Z,95.42
2023-01-08T05:11:19.523Z,95.20
2023-01-08T05:13:50.810Z,95.03
2023-01-08T05:16:17.998Z,94.94
2023-01-08T05:18:45.495Z,95.14
2023-01-08T05:21:13.254Z,94.87
2023-01-08T05:23:40.071Z,94.23
2023-01-08T05:26:07.387Z,94.26
2023-01-08T05:28:34.437Z,94.15
2023-01-08T05:31:00.983Z,94.25
2023-01-08T05:33:27.782Z,93.49
2023-01-08T05:35:54.378Z,92.83
2023-01-08T05:38:20.957Z,92.41
2023-01-08T05:40:47.444Z,91.82
2023-01-08T05:43:14.169Z,91.78
2023-01-08T05:45:40.653Z,90.99
2023-01-08T05:48:08.164Z,90.71
2023-01-08T05:50:35.612Z,90.67
2023-01-08T05:53:05.787Z,90.21
2023-01-08T05:55:32.347Z,89.81
2023-01-08T05:58:02.275Z,89.78
2023-01-08T06:00:28.828Z,88.75
2023-01-08T06:02:55.404Z,88.78
2023-01-08T06:05:21.979Z,88.84
2023-01-08T06:07:48.531Z,88.44
2023-01-08T06:10:15.151Z,88.48
2023-01-08T06:12:41.739Z,88.36
2023-01-08T06:15:10.028Z,88.50
2023-01-08T06:17:36.589Z,88.62
2023-01-08T06:20:03.710Z,88.29
2023-01-08T06:22:31.070Z,88.06
2023-01-08T06:24:58.822Z,88.00
2023-01-08T06:27:25.346Z,88.15
2023-01-08T06:29:51.893Z,87.84
2023-01-08T06:32:18.583Z,88.14
2023-01-08T06:34:45.083Z,87.96
2023-01-08T06:37:11.647Z,87.98
2023-01-08T06:39:38.172Z,88.07
2023-01-08T06:42:04.677Z,88.01
2023-01-08T06:44:31.246Z,88.00
2023-01-08T06:46:57.784Z,87.85
2023-01-08T06:49:24.321Z,87.97
2023-01-08T06:51:50.796Z,88.26
2023-01-08T06:54:17.377Z,88.03
2023-01-08T06:56:53.227Z,87.98
2023-01-08T06:59:20.869Z,88.04
2023-01-08T07:01:47.677Z,87.97
2023-01-08T07:04:14.294Z,88.05
2023-01-08T07:06:40.994Z,88.02
2023-01-08T07:09:07.528Z,88.01
2023-01-08T07:11:34.087Z,87.98
2023-01-08T07:14:00.577Z,88.41
2023-01-08T07:16:27.138Z,88.31
2023-01-08T07:18:53.620Z,88.41
2023-01-08T07:21:21.849Z,87.89
2023-01-08T07:23:50.325Z,88.23
2023-01-08T07:26:17.587Z,88.08
2023-01-08T07:28:44.620Z,87.56
2023-01-08T07:31:11.256Z,87.69
2023-01-08T07:33:37.806Z,87.85
2023-01-08T07:36:04.871Z,87.62
2023-01-08T07:38:31.396Z,87.94
2023-01-08T07:40:58.964Z,87.77
2023-01-08T07:43:26.189Z,87.45
2023-01-08T07:45:52.746Z,87.25
2023-01-08T07:48:19.215Z,87.41
2023-01-08T07:50:45.822Z,87.37
2023-01-08T07:53:13.804Z,87.05
2023-01-08T07:55:40.443Z,86.98
2023-01-08T07:58:09.102Z,87.12
2023-01-08T08:00:36.227Z,87.28
2023-01-08T08:03:07.398Z,86.72
2023-01-08T08:05:34.425Z,87.18
2023-01-08T08:08:01.251Z,87.74
2023-01-08T08:10:28.010Z,87.30
2023-01-08T08:12:54.590Z,87.64
2023-01-08T08:15:21.242Z,88.04
2023-01-08T08:17:48.348Z,88.36
2023-01-08T08:20:15.637Z,88.32
2023-01-08T08:22:42.281Z,88.36
2023-01-08T08:25:09.267Z,88.56
2023-01-08T08:27:35.914Z,88.53
2023-01-08T08:30:02.481Z,88.57
2023-01-08T08:32:28.961Z,89.08
2023-01-08T08:34:55.579Z,89.15
2023-01-08T08:37:22.090Z,89.28
2023-01-08T08:39:48.633Z,89.28
2023-01-08T08:42:15.198Z,89.56
2023-01-08T08:44:42.956Z,90.00
2023-01-08T08:47:09.709Z,90.15
2023-01-08T08:49:36.451Z,90.20
2023-01-08T08:52:04.386Z,90.46
2023-01-08T08:54:31.048Z,90.59
2023-01-08T08:56:57.603Z,90.64
2023-01-08T08:59:24.267Z,91.03
2023-01-08T09:01:50.967Z,91.02
2023-01-08T09:04:17.628Z,90.68
2023-01-08T09:06:44.216Z,90.98
2023-01-08T09:09:11.033Z,91.39
2023-01-08T09:11:37.590Z,91.39
2023-01-08T09:14:04.076Z,91.26
2023-01-08T09:16:30.819Z,91.33
2023-01-08T09:18:57.389Z,91.48
2023-01-08T09:21:23.892Z,91.48
2023-01-08T09:23:50.700Z,91.91
2023-01-08T09:26:17.269Z,91.86
2023-01-08T09:28:43.816Z,92.30
2023-01-08T09:31:10.472Z,92.34
2023-01-08T09:33:37.021Z,92.50
2023-01-08T09:36:03.796Z,92.22
2023-01-08T09:38:30.336Z,92.23
2023-01-08T09:41:28.346Z,92.61
2023-01-08T09:43:58.388Z,92.63
2023-01-08T09:46:28.039Z,92.71
2023-01-08T09:49:00.053Z,92.67
2023-01-08T09:51:34.962Z,92.85
2023-01-08T09:54:02.625Z,92.81
2023-01-08T09:56:29.827Z,93.01
2023-01-08T09:59:02.109Z,92.96
2023-01-08T10:01:31.162Z,92.80
2023-01-08T10:04:19.578Z,93.33
2023-01-08T10:07:00.568Z,93.44
2023-01-08T10:09:29.827Z,93.37
2023-01-08T10:12:00.513Z,93.28
2023-01-08T10:14:39.085Z,93.59
2023-01-08T10:17:15.916Z,93.57
2023-01-08T10:19:42.663Z,93.78
2023-01-08T10:22:17.360Z,93.93
2023-01-08T10:24:44.453Z,94.09
2023-01-08T10:27:19.221Z,94.35
2023-01-08T10:29:45.936Z,94.43
2023-01-08T10:32:18.598Z,94.40
2023-01-08T10:34:49.282Z,94.55
2023-01-08T10:37:32.790Z,94.76
2023-01-08T10:40:17.711Z,94.54
2023-01-08T10:42:44.254Z,94.32
2023-01-08T10:45:20.115Z,94.54
2023-01-08T10:47:49.059Z,94.69
2023-01-08T10:50:23.479Z,94.40
2023-01-08T10:53:03.760Z,94.26
2023-01-08T10:55:37.431Z,93.85
2023-01-08T10:58:13.826Z,93.54
2023-01-08T11:00:41.095Z,93.47
2023-01-08T11:03:18.863Z,93.36
2023-01-08T11:05:46.037Z,93.09
2023-01-08T11:08:23.038Z,92.72
2023-01-08T11:11:01.157Z,92.26
2023-01-08T11:13:29.411Z,91.40
2023-01-08T11:16:14.225Z,91.09
2023-01-08T11:18:50.295Z,91.21
2023-01-08T11:21:21.031Z,90.21
2023-01-08T11:23:48.345Z,89.43
2023-01-08T11:26:20.631Z,89.28
2023-01-08T11:29:14.642Z,89.65
2023-01-08T11:32:23.235Z,88.94
2023-01-08T11:35:09.939Z,89.41
2023-01-08T11:37:43.581Z,88.83
2023-01-08T11:40:21.712Z,88.44
2023-01-08T11:43:03.716Z,88.44
2023-01-08T11:45:42.303Z,89.41
2023-01-08T11:49:01.032Z,88.39
2023-01-08T11:51:33.755Z,87.70
2023-01-08T11:54:45.084Z,87.97
2023-01-08T11:57:25.192Z,86.15
2023-01-08T12:00:09.071Z,86.85
2023-01-08T12:02:50.599Z,86.14
2023-01-08T12:05:25.503Z,86.27
2023-01-08T12:08:03.913Z,85.73
2023-01-08T12:10:39.193Z,85.03
2023-01-08T12:13:58.029Z,84.56
2023-01-08T12:16:27.404Z,84.65
2023-01-08T12:19:19.247Z,83.90
2023-01-08T12:22:12.778Z,84.04
2023-01-08T12:24:45.117Z,84.52
2023-01-08T12:27:55.173Z,84.68
2023-01-08T12:30:43.588Z,84.55
2023-01-08T12:33:49.041Z,84.59
2023-01-08T12:36:37.795Z,84.92
2023-01-08T12:39:19.609Z,84.29
2023-01-08T12:41:48.111Z,83.68
2023-01-08T12:44:26.343Z,83.97
2023-01-08T12:46:54.687Z,84.17
2023-01-08T12:49:27.337Z,84.41
2023-01-08T12:52:20.657Z,84.19
2023-01-08T12:55:01.760Z,84.33
2023-01-08T12:57:34.512Z,82.89
2023-01-08T13:00:19.485Z,83.19
2023-01-08T13:02:56.909Z,83.73
2023-01-08T13:05:23.368Z,83.08
2023-01-08T13:07:54.282Z,83.26
2023-01-08T13:10:41.651Z,83.53
2023-01-08T13:13:26.150Z,82.55
2023-01-08T13:15:52.924Z,81.62
2023-01-08T13:18:21.442Z,81.80
2023-01-08T13:20:59.378Z,80.99
2023-01-08T13:23:31.503Z,81.13
2023-01-08T13:26:04.030Z,80.99
2023-01-08T13:28:36.845Z,81.01
2023-01-08T13:31:12.351Z,80.77
2023-01-08T13:33:41.688Z,80.62
2023-01-08T13:36:18.741Z,80.76
2023-01-08T13:38:45.498Z,80.83
2023-01-08T13:41:31.856Z,81.01
2023-01-08T13:44:22.568Z,81.06
2023-01-08T13:46:57.673Z,80.66
2023-01-08T13:49:34.206Z,80.58
2023-01-08T13:52:00.717Z,79.12
2023-01-08T13:54:36.649Z,79.03
2023-01-08T13:57:13.276Z,78.71
2023-01-08T13:59:41.882Z,78.44
2023-01-08T14:02:31.717Z,78.55
2023-01-08T14:05:03.154Z,77.68
2023-01-08T14:07:30.582Z,77.18
2023-01-08T14:10:07.258Z,77.46
2023-01-08T14:12:34.535Z,77.45
2023-01-08T14:15:01.150Z,77.64
2023-01-08T14:17:31.860Z,77.19
2023-01-08T14:19:58.983Z,76.98
2023-01-08T14:22:35.918Z,77.28
2023-01-08T14:25:06.290Z,77.05
2023-01-08T14:27:33.606Z,77.19
2023-01-08T14:30:00.346Z,77.00
2023-01-08T14:32:30.065Z,77.47
2023-01-08T14:34:59.220Z,77.30
2023-01-08T14:37:25.819Z,77.26
2023-01-08T14:39:54.703Z,77.19
2023-01-08T14:42:42.478Z,76.88
2023-01-08T14:45:29.675Z,76.44
2023-01-08T14:48:21.051Z,76.98
2023-01-08T14:51:03.075Z,77.06
2023-01-08T14:53:33.252Z,78.71
2023-01-08T14:56:00.783Z,76.89
2023-01-08T14:58:34.497Z,76.47
2023-01-08T15:01:05.993Z,76.89
2023-01-08T15:03:32.614Z,77.36
2023-01-08T15:05:59.834Z,77.43
2023-01-08T15:08:35.673Z,77.63
2023-01-08T15:11:08.961Z,77.98
2023-01-08T15:13:38.090Z,77.48
2023-01-08T15:16:10.841Z,78.49
2023-01-08T15:18:44.216Z,78.38
2023-01-08T15:21:15.901Z,78.50
2023-01-08T15:23:46.382Z,78.21
2023-01-08T15:26:14.662Z,78.12
2023-01-08T15:28:59.265Z,79.23
2023-01-08T15:31:33.384Z,78.88
2023-01-08T15:34:00.859Z,79.07
2023-01-08T15:36:27.813Z,79.12
2023-01-08T15:38:54.322Z,78.77
2023-01-08T15:41:41.436Z,78.78
2023-01-08T15:44:10.166Z,79.04
2023-01-08T15:46:36.617Z,79.34
2023-01-08T15:49:03.286Z,79.42
2023-01-08T15:51:33.216Z,79.48
2023-01-08T15:54:01.252Z,79.77
2023-01-08T15:56:28.536Z,79.96
2023-01-08T15:58:55.040Z,79.66
2023-01-08T16:01:21.712Z,79.56
2023-01-08T16:03:48.835Z,79.48
2023-01-08T16:06:15.419Z,79.97
2023-01-08T16:08:45.817Z,79.96
2023-01-08T16:11:13.874Z,79.34
2023-01-08T16:13:40.524Z,79.59
2023-01-08T16:16:09.851Z,79.96
2023-01-08T16:18:37.985Z,80.20
2023-01-08T16:21:06.018Z,80.05
2023-01-08T16:23:40.061Z,80.21
2023-01-08T16:26:11.762Z,80.02
2023-01-08T16:28:38.491Z,80.34
2023-01-08T16:31:05.605Z,80.19
2023-01-08T16:33:32.175Z,80.31
2023-01-08T16:36:01.134Z,80.38
2023-01-08T16:38:28.428Z,80.30
2023-01-08T16:40:59.530Z,80.76
2023-01-08T16:43:28.100Z,80.55
2023-01-08T16:45:55.129Z,80.51
2023-01-08T16:48:23.022Z,80.23
2023-01-08T16:50:49.764Z,80.67
2023-01-08T16:53:17.692Z,80.79
2023-01-08T16:55:44.250Z,80.15
2023-01-08T16:58:10.854Z,80.47
2023-01-08T17:00:38.273Z,80.59
2023-01-08T17:03:06.044Z,80.58
2023-01-08T17:05:32.899Z,80.70
2023-01-08T17:07:59.471Z,80.34
2023-01-08T17:10:26.612Z,80.55
2023-01-08T17:12:53.198Z,80.38
2023-01-08T17:15:19.664Z,80.30
2023-01-08T17:17:46.177Z,80.69
2023-01-08T17:20:12.967Z,81.08
2023-01-08T17:22:39.419Z,81.13
2023-01-08T17:25:06.292Z,81.34
2023-01-08T17:27:35.339Z,81.36
2023-01-08T17:30:02.115Z,81.58
2023-01-08T17:32:32.212Z,81.60
2023-01-08T17:34:58.758Z,81.94
2023-01-08T17:37:25.246Z,81.69
2023-01-08T17:39:51.746Z,81.92
2023-01-08T17:42:24.199Z,82.06
2023-01-08T17:44:51.759Z,82.23
2023-01-08T17:47:21.387Z,81.99
2023-01-08T17:49:52.221Z,82.29
2023-01-08T17:52:19.345Z,82.19
2023-01-08T17:54:49.290Z,82.37
2023-01-08T17:57:16.902Z,82.22
2023-01-08T17:59:44.379Z,82.56
2023-01-08T18:02:15.734Z,82.37
2023-01-08T18:04:43.858Z,82.38
2023-01-08T18:07:10.389Z,82.61
2023-01-08T18:09:37.040Z,82.51
2023-01-08T18:12:03.778Z,82.88
2023-01-08T18:14:30.332Z,82.68
2023-01-08T18:16:56.901Z,82.87
2023-01-08T18:19:25.185Z,82.95
2023-01-08T18:21:51.772Z,82.94
2023-01-08T18:24:18.389Z,83.21
2023-01-08T18:26:46.488Z,83.09
2023-01-08T18:29:13.267Z,82.80
2023-01-08T18:31:40.367Z,82.98
2023-01-08T18:34:07.054Z,83.20
2023-01-08T18:36:33.579Z,83.17
2023-01-08T18:39:00.250Z,83.44
2023-01-08T18:41:46.001Z,83.31
2023-01-08T18:44:12.566Z,83.50
2023-01-08T18:46:39.170Z,83.21
2023-01-08T18:49:06.449Z,83.27
2023-01-08T18:51:33.160Z,83.07
2023-01-08T18:53:59.697Z,83.32
2023-01-08T18:56:33.159Z,83.29
2023-01-08T18:58:59.761Z,83.31
2023-01-08T19:01:26.947Z,83.56
2023-01-08T19:03:53.735Z,83.69
2023-01-08T19:06:20.307Z,83.52
2023-01-08T19:08:47.004Z,83.49
2023-01-08T19:11:14.451Z,83.73
2023-01-08T19:13:41.461Z,84.05
2023-01-08T19:16:10.918Z,83.89
2023-01-08T19:18:38.217Z,84.14
2023-01-08T19:21:09.368Z,84.36
2023-01-08T19:23:36.254Z,84.64
2023-01-08T19:26:07.373Z,84.68
2023-01-08T19:28:34.085Z,84.52
2023-01-08T19:31:01.606Z,84.84
2023-01-08T19:33:28.207Z,85.09
2023-01-08T19:35:54.724Z,84.74
2023-01-08T19:38:21.349Z,84.83
2023-01-08T19:40:47.906Z,84.94
2023-01-08T19:43:33.072Z,85.24
2023-01-08T19:46:06.311Z,85.10
2023-01-08T19:48:33.111Z,85.05
2023-01-08T19:51:05.254Z,85.11
2023-01-08T19:53:31.816Z,85.23
2023-01-08T19:56:03.067Z,85.46
2023-01-08T19:58:29.807Z,85.19
2023-01-08T20:00:56.303Z,85.63
2023-01-08T20:03:29.128Z,85.74
2023-01-08T20:05:55.716Z,85.83
2023-01-08T20:08:22.338Z,86.22
2023-01-08T20:10:48.882Z,86.73
2023-01-08T20:13:15.409Z,86.96
2023-01-08T20:15:41.883Z,86.55
2023-01-08T20:18:08.428Z,86.69
2023-01-08T20:20:34.907Z,86.87
2023-01-08T20:23:01.393Z,86.85
2023-01-08T20:25:28.045Z,87.21
2023-01-08T20:27:54.607Z,87.19
2023-01-08T20:30:21.136Z,87.36
2023-01-08T20:32:47.665Z,87.47
2023-01-08T20:35:14.160Z,87.49
2023-01-08T20:37:40.635Z,87.46
2023-01-08T20:40:07.943Z,87.65
2023-01-08T20:42:34.691Z,87.48
2023-01-08T20:45:01.485Z,87.79
2023-01-08T20:47:27.945Z,87.99
2023-01-08T20:49:54.405Z,88.13
2023-01-08T20:52:20.892Z,88.08
2023-01-08T20:54:47.427Z,88.04
2023-01-08T20:57:13.893Z,88.26
2023-01-08T20:59:40.420Z,88.78
2023-01-08T21:02:07.112Z,88.90
2023-01-08T21:04:33.734Z,88.94
2023-01-08T21:07:00.308Z,89.14
2023-01-08T21:09:26.902Z,89.30
2023-01-08T21:11:53.498Z,89.70
2023-01-08T21:14:20.039Z,89.68
2023-01-08T21:16:46.989Z,89.96
2023-01-08T21:19:15.492Z,90.50
2023-01-08T21:21:42.388Z,90.33
2023-01-08T21:24:11.966Z,90.55
2023-01-08T21:26:39.048Z,90.90
2023-01-08T21:29:07.253Z,91.32
2023-01-08T21:31:34.989Z,91.61
2023-01-08T21:34:03.138Z,91.56
2023-01-08T21:36:31.910Z,91.96
2023-01-08T21:39:00.541Z,92.31
2023-01-08T21:41:47.870Z,92.56
2023-01-08T21:44:39.001Z,92.90
2023-01-08T21:47:08.416Z,93.11
2023-01-08T21:49:35.954Z,93.01
2023-01-08T21:52:21.754Z,93.14
2023-01-08T21:54:48.304Z,93.51
2023-01-08T21:57:14.917Z,94.00
2023-01-08T21:59:41.407Z,94.63
2023-01-08T22:02:13.016Z,94.82
2023-01-08T22:04:39.549Z,95.20
2023-01-08T22:07:06.091Z,95.66
2023-01-08T22:09:32.624Z,95.67
2023-01-08T22:11:59.153Z,95.68
2023-01-08T22:14:25.664Z,95.88
2023-01-08T22:16:52.155Z,96.58
2023-01-08T22:19:18.913Z,96.91
2023-01-08T22:21:46.057Z,97.09
2023-01-08T22:24:12.786Z,97.62
2023-01-08T22:26:39.255Z,97.53
2023-01-08T22:29:06.501Z,97.42
2023-01-08T22:31:33.928Z,97.48
2023-01-08T22:34:00.516Z,97.79
2023-01-08T22:36:27.278Z,97.93
2023-01-08T22:38:53.759Z,98.22
2023-01-08T22:41:22.667Z,98.64
2023-01-08T22:43:58.734Z,99.20
2023-01-08T22:46:25.860Z,100.00
2023-01-08T22:48:52.711Z,98.25
2023-01-08T22:51:27.246Z,96.33
2023-01-08T22:53:58.177Z,94.53
2023-01-08T22:56:25.681Z,94.47
2023-01-08T22:58:52.526Z,94.68
2023-01-08T23:01:24.604Z,95.66
2023-01-08T23:03:53.179Z,95.63
2023-01-08T23:06:21.250Z,96.32
2023-01-08T23:08:48.208Z,97.11
2023-01-08T23:11:16.729Z,97.19
2023-01-08T23:13:43.726Z,97.40
2023-01-08T23:16:13.475Z,97.33
2023-01-08T23:18:40.567Z,97.11
2023-01-08T23:21:13.815Z,97.34
2023-01-08T23:23:40.649Z,97.65
2023-01-08T23:26:19.387Z,97.44
2023-01-08T23:28:50.320Z,97.17
2023-01-08T23:31:20.184Z,97.44
2023-01-08T23:33:47.339Z,97.57
2023-01-08T23:36:18.200Z,97.53
2023-01-08T23:38:46.022Z,97.54
2023-01-08T23:41:12.611Z,97.50
2023-01-08T23:43:39.125Z,97.28
2023-01-08T23:46:06.632Z,97.69
2023-01-08T23:48:33.500Z,97.67
2023-01-08T23:51:00.213Z,97.63
2023-01-08T23:53:26.990Z,98.09
2023-01-08T23:55:53.563Z,97.82
2023-01-08T23:58:20.311Z,98.00
